sensor_id;sensor_type;location;lat;lon;timestamp;P1;durP1;ratioP1;P2;durP2;ratioP2
23543;SDS011;11950;51.230;4.012;2022-07-25T00:01:50;9.60;;;7.45;;
23543;SDS011;11950;51.230;4.012;2022-07-25T00:04:16;9.68;;;7.35;;
23543;SDS011;11950;51.230;4.012;2022-07-25T00:06:43;14.30;;;7.97;;
23543;SDS011;11950;51.230;4.012;2022-07-25T00:09:09;8.43;;;6.93;;
23543;SDS011;11950;51.230;4.012;2022-07-25T00:11:36;8.25;;;7.40;;
23543;SDS011;11950;51.230;4.012;2022-07-25T00:14:03;8.45;;;6.78;;
23543;SDS011;11950;51.230;4.012;2022-07-25T00:16:29;10.73;;;7.05;;
23543;SDS011;11950;51.230;4.012;2022-07-25T00:18:55;7.10;;;6.13;;
23543;SDS011;11950;51.230;4.012;2022-07-25T00:21:22;8.93;;;5.80;;
23543;SDS011;11950;51.230;4.012;2022-07-25T00:23:48;9.52;;;7.07;;
23543;SDS011;11950;51.230;4.012;2022-07-25T00:26:15;10.98;;;7.15;;
23543;SDS011;11950;51.230;4.012;2022-07-25T00:28:41;13.52;;;6.78;;
23543;SDS011;11950;51.230;4.012;2022-07-25T00:31:08;7.60;;;6.45;;
23543;SDS011;11950;51.230;4.012;2022-07-25T00:33:34;7.88;;;7.05;;
23543;SDS011;11950;51.230;4.012;2022-07-25T00:36:01;8.65;;;6.97;;
23543;SDS011;11950;51.230;4.012;2022-07-25T00:38:27;10.90;;;7.18;;
23543;SDS011;11950;51.230;4.012;2022-07-25T00:40:53;7.80;;;6.82;;
23543;SDS011;11950;51.230;4.012;2022-07-25T00:43:20;8.35;;;6.65;;
23543;SDS011;11950;51.230;4.012;2022-07-25T00:45:46;11.25;;;6.65;;
23543;SDS011;11950;51.230;4.012;2022-07-25T00:48:13;8.10;;;6.90;;
23543;SDS011;11950;51.230;4.012;2022-07-25T00:50:39;8.02;;;7.30;;
23543;SDS011;11950;51.230;4.012;2022-07-25T00:53:06;7.18;;;6.47;;
23543;SDS011;11950;51.230;4.012;2022-07-25T00:55:32;9.85;;;7.40;;
23543;SDS011;11950;51.230;4.012;2022-07-25T00:57:59;11.13;;;7.65;;
23543;SDS011;11950;51.230;4.012;2022-07-25T01:00:26;8.68;;;7.10;;
23543;SDS011;11950;51.230;4.012;2022-07-25T01:02:52;8.45;;;6.55;;
23543;SDS011;11950;51.230;4.012;2022-07-25T01:05:19;8.25;;;7.00;;
23543;SDS011;11950;51.230;4.012;2022-07-25T01:07:45;7.55;;;6.82;;
23543;SDS011;11950;51.230;4.012;2022-07-25T01:10:12;7.97;;;7.22;;
23543;SDS011;11950;51.230;4.012;2022-07-25T01:12:51;8.40;;;7.57;;
23543;SDS011;11950;51.230;4.012;2022-07-25T01:15:19;8.85;;;7.25;;
23543;SDS011;11950;51.230;4.012;2022-07-25T01:17:47;10.40;;;7.93;;
23543;SDS011;11950;51.230;4.012;2022-07-25T01:20:17;8.52;;;7.47;;
23543;SDS011;11950;51.230;4.012;2022-07-25T01:22:45;10.00;;;7.47;;
23543;SDS011;11950;51.230;4.012;2022-07-25T01:25:12;11.93;;;8.13;;
23543;SDS011;11950;51.230;4.012;2022-07-25T01:27:40;10.13;;;8.13;;
23543;SDS011;11950;51.230;4.012;2022-07-25T01:30:07;9.65;;;8.65;;
23543;SDS011;11950;51.230;4.012;2022-07-25T01:32:35;10.10;;;7.97;;
23543;SDS011;11950;51.230;4.012;2022-07-25T01:35:05;9.25;;;8.30;;
23543;SDS011;11950;51.230;4.012;2022-07-25T01:37:32;12.23;;;8.48;;
23543;SDS011;11950;51.230;4.012;2022-07-25T01:39:58;7.65;;;6.93;;
23543;SDS011;11950;51.230;4.012;2022-07-25T01:42:25;10.50;;;8.25;;
23543;SDS011;11950;51.230;4.012;2022-07-25T01:44:52;10.35;;;8.15;;
23543;SDS011;11950;51.230;4.012;2022-07-25T01:47:19;9.98;;;8.57;;
23543;SDS011;11950;51.230;4.012;2022-07-25T01:49:45;8.48;;;7.57;;
23543;SDS011;11950;51.230;4.012;2022-07-25T01:52:12;10.35;;;8.18;;
23543;SDS011;11950;51.230;4.012;2022-07-25T01:54:39;10.18;;;8.60;;
23543;SDS011;11950;51.230;4.012;2022-07-25T01:57:06;10.35;;;8.00;;
23543;SDS011;11950;51.230;4.012;2022-07-25T01:59:36;10.63;;;8.73;;
23543;SDS011;11950;51.230;4.012;2022-07-25T02:02:04;11.20;;;8.32;;
23543;SDS011;11950;51.230;4.012;2022-07-25T02:04:30;8.77;;;7.78;;
23543;SDS011;11950;51.230;4.012;2022-07-25T02:06:57;9.68;;;8.25;;
23543;SDS011;11950;51.230;4.012;2022-07-25T02:09:23;10.63;;;7.90;;
23543;SDS011;11950;51.230;4.012;2022-07-25T02:11:50;8.23;;;7.10;;
23543;SDS011;11950;51.230;4.012;2022-07-25T02:14:19;10.52;;;7.72;;
23543;SDS011;11950;51.230;4.012;2022-07-25T02:16:46;9.85;;;7.90;;
23543;SDS011;11950;51.230;4.012;2022-07-25T02:19:12;10.10;;;8.60;;
23543;SDS011;11950;51.230;4.012;2022-07-25T02:21:39;8.48;;;7.57;;
23543;SDS011;11950;51.230;4.012;2022-07-25T02:24:05;11.73;;;7.93;;
23543;SDS011;11950;51.230;4.012;2022-07-25T02:26:32;8.38;;;7.65;;
23543;SDS011;11950;51.230;4.012;2022-07-25T02:28:58;10.70;;;6.93;;
23543;SDS011;11950;51.230;4.012;2022-07-25T02:31:24;10.00;;;6.80;;
23543;SDS011;11950;51.230;4.012;2022-07-25T02:33:51;7.97;;;6.88;;
23543;SDS011;11950;51.230;4.012;2022-07-25T02:36:17;8.82;;;6.45;;
23543;SDS011;11950;51.230;4.012;2022-07-25T02:38:43;7.88;;;6.80;;
23543;SDS011;11950;51.230;4.012;2022-07-25T02:41:09;7.95;;;7.15;;
23543;SDS011;11950;51.230;4.012;2022-07-25T02:43:36;9.68;;;7.72;;
23543;SDS011;11950;51.230;4.012;2022-07-25T02:46:03;8.82;;;7.93;;
23543;SDS011;11950;51.230;4.012;2022-07-25T02:48:29;9.20;;;8.10;;
23543;SDS011;11950;51.230;4.012;2022-07-25T02:50:55;11.52;;;8.23;;
23543;SDS011;11950;51.230;4.012;2022-07-25T02:53:22;9.88;;;7.78;;
23543;SDS011;11950;51.230;4.012;2022-07-25T02:55:48;8.40;;;7.35;;
23543;SDS011;11950;51.230;4.012;2022-07-25T02:58:14;9.10;;;8.02;;
23543;SDS011;11950;51.230;4.012;2022-07-25T03:00:41;8.95;;;7.70;;
23543;SDS011;11950;51.230;4.012;2022-07-25T03:03:07;8.73;;;7.50;;
23543;SDS011;11950;51.230;4.012;2022-07-25T03:05:33;9.30;;;8.38;;
23543;SDS011;11950;51.230;4.012;2022-07-25T03:08:00;8.15;;;7.13;;
23543;SDS011;11950;51.230;4.012;2022-07-25T03:10:26;8.80;;;7.70;;
23543;SDS011;11950;51.230;4.012;2022-07-25T03:12:52;10.18;;;7.68;;
23543;SDS011;11950;51.230;4.012;2022-07-25T03:15:18;8.82;;;7.93;;
23543;SDS011;11950;51.230;4.012;2022-07-25T03:17:45;10.27;;;7.50;;
23543;SDS011;11950;51.230;4.012;2022-07-25T03:20:12;8.00;;;7.20;;
23543;SDS011;11950;51.230;4.012;2022-07-25T03:22:38;10.95;;;7.72;;
23543;SDS011;11950;51.230;4.012;2022-07-25T03:25:05;8.65;;;6.72;;
23543;SDS011;11950;51.230;4.012;2022-07-25T03:27:32;11.25;;;6.80;;
23543;SDS011;11950;51.230;4.012;2022-07-25T03:29:58;8.65;;;6.70;;
23543;SDS011;11950;51.230;4.012;2022-07-25T03:32:25;8.27;;;6.43;;
23543;SDS011;11950;51.230;4.012;2022-07-25T03:34:51;8.25;;;6.05;;
23543;SDS011;11950;51.230;4.012;2022-07-25T03:37:18;8.00;;;6.60;;
23543;SDS011;11950;51.230;4.012;2022-07-25T03:39:44;6.50;;;5.68;;
23543;SDS011;11950;51.230;4.012;2022-07-25T03:42:11;10.10;;;6.57;;
23543;SDS011;11950;51.230;4.012;2022-07-25T03:44:37;8.50;;;5.45;;
23543;SDS011;11950;51.230;4.012;2022-07-25T03:47:04;5.68;;;5.07;;
23543;SDS011;11950;51.230;4.012;2022-07-25T03:49:31;8.00;;;5.05;;
23543;SDS011;11950;51.230;4.012;2022-07-25T03:51:58;5.78;;;5.05;;
23543;SDS011;11950;51.230;4.012;2022-07-25T03:54:24;6.10;;;5.28;;
23543;SDS011;11950;51.230;4.012;2022-07-25T03:56:51;9.00;;;4.78;;
23543;SDS011;11950;51.230;4.012;2022-07-25T03:59:18;6.53;;;4.75;;
23543;SDS011;11950;51.230;4.012;2022-07-25T04:01:46;7.55;;;5.00;;
23543;SDS011;11950;51.230;4.012;2022-07-25T04:04:13;6.55;;;4.45;;
23543;SDS011;11950;51.230;4.012;2022-07-25T04:06:39;7.03;;;3.90;;
23543;SDS011;11950;51.230;4.012;2022-07-25T04:09:07;6.43;;;4.05;;
23543;SDS011;11950;51.230;4.012;2022-07-25T04:11:34;6.45;;;4.55;;
23543;SDS011;11950;51.230;4.012;2022-07-25T04:14:02;4.93;;;3.80;;
23543;SDS011;11950;51.230;4.012;2022-07-25T04:16:29;4.82;;;3.40;;
23543;SDS011;11950;51.230;4.012;2022-07-25T04:18:56;3.72;;;3.25;;
23543;SDS011;11950;51.230;4.012;2022-07-25T04:21:23;4.18;;;3.25;;
23543;SDS011;11950;51.230;4.012;2022-07-25T04:23:49;4.85;;;2.63;;
23543;SDS011;11950;51.230;4.012;2022-07-25T04:26:16;3.90;;;2.83;;
23543;SDS011;11950;51.230;4.012;2022-07-25T04:28:43;3.05;;;2.47;;
23543;SDS011;11950;51.230;4.012;2022-07-25T04:31:09;3.95;;;2.97;;
23543;SDS011;11950;51.230;4.012;2022-07-25T04:33:36;6.13;;;3.08;;
23543;SDS011;11950;51.230;4.012;2022-07-25T04:36:03;4.78;;;2.20;;
23543;SDS011;11950;51.230;4.012;2022-07-25T04:38:30;4.20;;;2.58;;
23543;SDS011;11950;51.230;4.012;2022-07-25T04:40:57;5.35;;;2.55;;
23543;SDS011;11950;51.230;4.012;2022-07-25T04:43:24;4.55;;;2.78;;
23543;SDS011;11950;51.230;4.012;2022-07-25T04:45:50;4.00;;;2.42;;
23543;SDS011;11950;51.230;4.012;2022-07-25T04:48:16;5.60;;;2.72;;
23543;SDS011;11950;51.230;4.012;2022-07-25T04:50:43;7.40;;;2.60;;
23543;SDS011;11950;51.230;4.012;2022-07-25T04:53:10;4.95;;;2.70;;
23543;SDS011;11950;51.230;4.012;2022-07-25T04:55:36;6.72;;;2.90;;
23543;SDS011;11950;51.230;4.012;2022-07-25T04:58:03;3.97;;;2.30;;
23543;SDS011;11950;51.230;4.012;2022-07-25T05:00:30;6.47;;;2.75;;
23543;SDS011;11950;51.230;4.012;2022-07-25T05:02:57;5.00;;;2.60;;
23543;SDS011;11950;51.230;4.012;2022-07-25T05:05:24;5.88;;;2.45;;
23543;SDS011;11950;51.230;4.012;2022-07-25T05:07:57;4.72;;;2.28;;
23543;SDS011;11950;51.230;4.012;2022-07-25T05:10:24;5.93;;;2.08;;
23543;SDS011;11950;51.230;4.012;2022-07-25T05:12:51;6.50;;;2.65;;
23543;SDS011;11950;51.230;4.012;2022-07-25T05:15:18;5.53;;;2.30;;
23543;SDS011;11950;51.230;4.012;2022-07-25T05:17:44;4.85;;;2.00;;
23543;SDS011;11950;51.230;4.012;2022-07-25T05:20:11;3.83;;;2.40;;
23543;SDS011;11950;51.230;4.012;2022-07-25T05:22:38;7.22;;;2.70;;
23543;SDS011;11950;51.230;4.012;2022-07-25T05:25:08;9.07;;;3.05;;
23543;SDS011;11950;51.230;4.012;2022-07-25T05:27:36;4.95;;;2.30;;
23543;SDS011;11950;51.230;4.012;2022-07-25T05:30:04;4.15;;;2.58;;
23543;SDS011;11950;51.230;4.012;2022-07-25T05:32:30;4.70;;;2.45;;
23543;SDS011;11950;51.230;4.012;2022-07-25T05:34:57;7.18;;;2.67;;
23543;SDS011;11950;51.230;4.012;2022-07-25T05:37:24;5.03;;;2.13;;
23543;SDS011;11950;51.230;4.012;2022-07-25T05:39:50;5.97;;;2.53;;
23543;SDS011;11950;51.230;4.012;2022-07-25T05:42:17;4.75;;;2.40;;
23543;SDS011;11950;51.230;4.012;2022-07-25T05:44:44;5.60;;;2.20;;
23543;SDS011;11950;51.230;4.012;2022-07-25T05:47:11;10.15;;;2.60;;
23543;SDS011;11950;51.230;4.012;2022-07-25T05:49:37;10.20;;;2.00;;
23543;SDS011;11950;51.230;4.012;2022-07-25T05:52:04;11.10;;;2.30;;
23543;SDS011;11950;51.230;4.012;2022-07-25T05:54:31;7.55;;;1.95;;
23543;SDS011;11950;51.230;4.012;2022-07-25T05:56:59;6.95;;;2.17;;
23543;SDS011;11950;51.230;4.012;2022-07-25T05:59:26;5.05;;;2.08;;
23543;SDS011;11950;51.230;4.012;2022-07-25T06:01:52;2.95;;;1.90;;
23543;SDS011;11950;51.230;4.012;2022-07-25T06:04:19;4.30;;;2.25;;
23543;SDS011;11950;51.230;4.012;2022-07-25T06:06:45;6.18;;;2.00;;
23543;SDS011;11950;51.230;4.012;2022-07-25T06:09:19;6.53;;;2.17;;
23543;SDS011;11950;51.230;4.012;2022-07-25T06:11:47;6.15;;;1.90;;
23543;SDS011;11950;51.230;4.012;2022-07-25T06:14:13;6.47;;;2.10;;
23543;SDS011;11950;51.230;4.012;2022-07-25T06:16:40;2.75;;;1.83;;
23543;SDS011;11950;51.230;4.012;2022-07-25T06:19:07;7.75;;;2.22;;
23543;SDS011;11950;51.230;4.012;2022-07-25T06:21:33;4.85;;;2.05;;
23543;SDS011;11950;51.230;4.012;2022-07-25T06:24:00;6.28;;;2.50;;
23543;SDS011;11950;51.230;4.012;2022-07-25T06:26:26;7.30;;;2.53;;
23543;SDS011;11950;51.230;4.012;2022-07-25T06:28:53;8.85;;;2.65;;
23543;SDS011;11950;51.230;4.012;2022-07-25T06:31:19;6.95;;;2.85;;
23543;SDS011;11950;51.230;4.012;2022-07-25T06:33:46;3.83;;;2.33;;
23543;SDS011;11950;51.230;4.012;2022-07-25T06:36:12;7.97;;;2.70;;
23543;SDS011;11950;51.230;4.012;2022-07-25T06:38:39;5.22;;;3.00;;
23543;SDS011;11950;51.230;4.012;2022-07-25T06:41:05;5.70;;;3.22;;
23543;SDS011;11950;51.230;4.012;2022-07-25T06:43:32;7.45;;;3.47;;
23543;SDS011;11950;51.230;4.012;2022-07-25T06:45:58;8.32;;;3.58;;
23543;SDS011;11950;51.230;4.012;2022-07-25T06:48:25;8.02;;;2.90;;
23543;SDS011;11950;51.230;4.012;2022-07-25T06:50:52;5.00;;;3.10;;
23543;SDS011;11950;51.230;4.012;2022-07-25T06:53:18;7.18;;;3.58;;
23543;SDS011;11950;51.230;4.012;2022-07-25T06:55:45;9.20;;;3.72;;
23543;SDS011;11950;51.230;4.012;2022-07-25T06:58:11;7.88;;;4.25;;
23543;SDS011;11950;51.230;4.012;2022-07-25T07:00:38;9.13;;;4.80;;
23543;SDS011;11950;51.230;4.012;2022-07-25T07:03:04;7.30;;;3.75;;
23543;SDS011;11950;51.230;4.012;2022-07-25T07:05:32;6.57;;;4.43;;
23543;SDS011;11950;51.230;4.012;2022-07-25T07:08:00;9.20;;;3.58;;
23543;SDS011;11950;51.230;4.012;2022-07-25T07:10:28;7.90;;;3.83;;
23543;SDS011;11950;51.230;4.012;2022-07-25T07:15:34;9.00;;;4.70;;
23543;SDS011;11950;51.230;4.012;2022-07-25T07:18:02;9.55;;;4.20;;
23543;SDS011;11950;51.230;4.012;2022-07-25T07:20:28;8.10;;;4.35;;
23543;SDS011;11950;51.230;4.012;2022-07-25T07:22:55;8.85;;;4.10;;
23543;SDS011;11950;51.230;4.012;2022-07-25T07:25:21;5.28;;;4.13;;
23543;SDS011;11950;51.230;4.012;2022-07-25T07:27:48;8.80;;;4.20;;
23543;SDS011;11950;51.230;4.012;2022-07-25T07:30:16;7.00;;;3.80;;
23543;SDS011;11950;51.230;4.012;2022-07-25T07:32:42;9.55;;;4.57;;
23543;SDS011;11950;51.230;4.012;2022-07-25T07:35:10;8.95;;;4.38;;
23543;SDS011;11950;51.230;4.012;2022-07-25T07:37:36;6.55;;;4.00;;
23543;SDS011;11950;51.230;4.012;2022-07-25T07:40:03;8.25;;;4.00;;
23543;SDS011;11950;51.230;4.012;2022-07-25T07:42:40;12.20;;;4.38;;
23543;SDS011;11950;51.230;4.012;2022-07-25T07:45:14;8.35;;;3.97;;
23543;SDS011;11950;51.230;4.012;2022-07-25T07:47:41;9.48;;;4.13;;
23543;SDS011;11950;51.230;4.012;2022-07-25T07:50:08;11.40;;;4.57;;
23543;SDS011;11950;51.230;4.012;2022-07-25T07:52:35;6.97;;;4.72;;
23543;SDS011;11950;51.230;4.012;2022-07-25T07:55:02;9.10;;;3.95;;
23543;SDS011;11950;51.230;4.012;2022-07-25T07:57:47;13.40;;;4.32;;
23543;SDS011;11950;51.230;4.012;2022-07-25T08:00:13;7.22;;;3.70;;
23543;SDS011;11950;51.230;4.012;2022-07-25T08:02:41;7.88;;;4.35;;
23543;SDS011;11950;51.230;4.012;2022-07-25T08:05:12;7.03;;;3.28;;
23543;SDS011;11950;51.230;4.012;2022-07-25T08:07:45;6.88;;;2.97;;
23543;SDS011;11950;51.230;4.012;2022-07-25T08:10:12;4.72;;;2.72;;
23543;SDS011;11950;51.230;4.012;2022-07-25T08:12:39;6.97;;;3.08;;
23543;SDS011;11950;51.230;4.012;2022-07-25T08:15:06;6.15;;;2.72;;
23543;SDS011;11950;51.230;4.012;2022-07-25T08:17:33;7.13;;;2.10;;
23543;SDS011;11950;51.230;4.012;2022-07-25T08:20:00;6.32;;;2.20;;
23543;SDS011;11950;51.230;4.012;2022-07-25T08:22:35;6.80;;;2.20;;
23543;SDS011;11950;51.230;4.012;2022-07-25T08:25:02;5.78;;;2.00;;
23543;SDS011;11950;51.230;4.012;2022-07-25T08:27:29;6.13;;;1.70;;
23543;SDS011;11950;51.230;4.012;2022-07-25T08:29:55;7.28;;;2.42;;
23543;SDS011;11950;51.230;4.012;2022-07-25T08:32:25;5.25;;;1.90;;
23543;SDS011;11950;51.230;4.012;2022-07-25T08:34:53;7.28;;;2.15;;
23543;SDS011;11950;51.230;4.012;2022-07-25T08:37:20;5.03;;;2.08;;
23543;SDS011;11950;51.230;4.012;2022-07-25T08:39:46;5.57;;;1.92;;
23543;SDS011;11950;51.230;4.012;2022-07-25T08:42:13;7.47;;;2.20;;
23543;SDS011;11950;51.230;4.012;2022-07-25T08:44:41;6.85;;;2.30;;
23543;SDS011;11950;51.230;4.012;2022-07-25T08:47:09;4.97;;;2.13;;
23543;SDS011;11950;51.230;4.012;2022-07-25T08:49:40;3.67;;;2.20;;
23543;SDS011;11950;51.230;4.012;2022-07-25T08:52:07;11.68;;;4.68;;
23543;SDS011;11950;51.230;4.012;2022-07-25T08:54:34;4.80;;;2.40;;
23543;SDS011;11950;51.230;4.012;2022-07-25T08:57:01;6.18;;;1.80;;
23543;SDS011;11950;51.230;4.012;2022-07-25T08:59:29;6.90;;;1.50;;
23543;SDS011;11950;51.230;4.012;2022-07-25T09:01:56;2.42;;;1.42;;
23543;SDS011;11950;51.230;4.012;2022-07-25T09:04:24;6.70;;;2.40;;
23543;SDS011;11950;51.230;4.012;2022-07-25T09:06:51;43.38;;;5.32;;
23543;SDS011;11950;51.230;4.012;2022-07-25T09:09:18;19.85;;;2.10;;
23543;SDS011;11950;51.230;4.012;2022-07-25T09:11:44;4.95;;;1.45;;
23543;SDS011;11950;51.230;4.012;2022-07-25T09:14:11;4.68;;;1.70;;
23543;SDS011;11950;51.230;4.012;2022-07-25T09:16:39;4.90;;;1.70;;
23543;SDS011;11950;51.230;4.012;2022-07-25T09:19:12;2.03;;;1.80;;
23543;SDS011;11950;51.230;4.012;2022-07-25T09:21:39;4.18;;;2.05;;
23543;SDS011;11950;51.230;4.012;2022-07-25T09:24:16;5.53;;;1.90;;
23543;SDS011;11950;51.230;4.012;2022-07-25T09:26:50;5.25;;;2.58;;
23543;SDS011;11950;51.230;4.012;2022-07-25T09:29:17;4.65;;;2.22;;
23543;SDS011;11950;51.230;4.012;2022-07-25T09:31:44;7.78;;;2.60;;
23543;SDS011;11950;51.230;4.012;2022-07-25T09:34:11;6.28;;;2.90;;
23543;SDS011;11950;51.230;4.012;2022-07-25T09:36:49;7.90;;;2.55;;
23543;SDS011;11950;51.230;4.012;2022-07-25T09:39:15;4.80;;;1.67;;
23543;SDS011;11950;51.230;4.012;2022-07-25T09:41:42;5.80;;;1.83;;
23543;SDS011;11950;51.230;4.012;2022-07-25T09:44:18;7.15;;;1.80;;
23543;SDS011;11950;51.230;4.012;2022-07-25T09:46:47;6.15;;;2.00;;
23543;SDS011;11950;51.230;4.012;2022-07-25T09:49:14;7.53;;;1.77;;
23543;SDS011;11950;51.230;4.012;2022-07-25T09:51:41;7.35;;;2.38;;
23543;SDS011;11950;51.230;4.012;2022-07-25T09:54:07;6.40;;;1.98;;
23543;SDS011;11950;51.230;4.012;2022-07-25T09:56:34;6.65;;;2.25;;
23543;SDS011;11950;51.230;4.012;2022-07-25T09:59:01;6.53;;;2.22;;
23543;SDS011;11950;51.230;4.012;2022-07-25T10:01:38;5.65;;;1.73;;
23543;SDS011;11950;51.230;4.012;2022-07-25T10:04:11;5.80;;;1.60;;
23543;SDS011;11950;51.230;4.012;2022-07-25T10:06:42;10.27;;;2.15;;
23543;SDS011;11950;51.230;4.012;2022-07-25T10:09:14;4.28;;;2.20;;
23543;SDS011;11950;51.230;4.012;2022-07-25T10:12:01;5.35;;;2.45;;
23543;SDS011;11950;51.230;4.012;2022-07-25T10:14:31;6.22;;;2.63;;
23543;SDS011;11950;51.230;4.012;2022-07-25T10:16:58;6.85;;;2.50;;
23543;SDS011;11950;51.230;4.012;2022-07-25T10:22:04;10.45;;;2.58;;
23543;SDS011;11950;51.230;4.012;2022-07-25T10:24:33;4.32;;;1.88;;
23543;SDS011;11950;51.230;4.012;2022-07-25T10:27:08;7.30;;;1.98;;
23543;SDS011;11950;51.230;4.012;2022-07-25T10:29:40;5.60;;;2.10;;
23543;SDS011;11950;51.230;4.012;2022-07-25T10:32:08;3.25;;;1.70;;
23543;SDS011;11950;51.230;4.012;2022-07-25T10:34:36;4.88;;;1.40;;
23543;SDS011;11950;51.230;4.012;2022-07-25T10:37:13;5.88;;;1.55;;
23543;SDS011;11950;51.230;4.012;2022-07-25T10:39:40;6.60;;;1.70;;
23543;SDS011;11950;51.230;4.012;2022-07-25T10:42:13;4.57;;;1.40;;
23543;SDS011;11950;51.230;4.012;2022-07-25T10:44:44;23.70;;;3.97;;
23543;SDS011;11950;51.230;4.012;2022-07-25T10:47:13;14.57;;;3.08;;
23543;SDS011;11950;51.230;4.012;2022-07-25T10:49:42;8.50;;;3.22;;
23543;SDS011;11950;51.230;4.012;2022-07-25T10:52:16;10.30;;;3.30;;
23543;SDS011;11950;51.230;4.012;2022-07-25T10:54:55;9.73;;;3.17;;
23543;SDS011;11950;51.230;4.012;2022-07-25T10:57:22;6.03;;;2.17;;
23543;SDS011;11950;51.230;4.012;2022-07-25T10:59:49;8.20;;;2.10;;
23543;SDS011;11950;51.230;4.012;2022-07-25T11:02:15;4.43;;;1.52;;
23543;SDS011;11950;51.230;4.012;2022-07-25T11:04:43;5.78;;;1.85;;
23543;SDS011;11950;51.230;4.012;2022-07-25T11:07:12;5.90;;;1.52;;
23543;SDS011;11950;51.230;4.012;2022-07-25T11:09:40;5.80;;;1.48;;
23543;SDS011;11950;51.230;4.012;2022-07-25T11:12:08;4.35;;;1.63;;
23543;SDS011;11950;51.230;4.012;2022-07-25T11:14:39;6.38;;;1.40;;
23543;SDS011;11950;51.230;4.012;2022-07-25T11:17:14;6.22;;;1.75;;
23543;SDS011;11950;51.230;4.012;2022-07-25T11:19:42;7.80;;;2.05;;
23543;SDS011;11950;51.230;4.012;2022-07-25T11:22:09;3.90;;;1.30;;
23543;SDS011;11950;51.230;4.012;2022-07-25T11:24:40;3.72;;;1.50;;
23543;SDS011;11950;51.230;4.012;2022-07-25T11:27:10;6.55;;;1.70;;
23543;SDS011;11950;51.230;4.012;2022-07-25T11:29:37;5.90;;;1.73;;
23543;SDS011;11950;51.230;4.012;2022-07-25T11:32:06;4.65;;;1.40;;
23543;SDS011;11950;51.230;4.012;2022-07-25T11:34:46;4.55;;;1.58;;
23543;SDS011;11950;51.230;4.012;2022-07-25T11:37:14;7.82;;;1.98;;
23543;SDS011;11950;51.230;4.012;2022-07-25T11:39:42;4.53;;;1.48;;
23543;SDS011;11950;51.230;4.012;2022-07-25T11:42:10;4.68;;;1.30;;
23543;SDS011;11950;51.230;4.012;2022-07-25T11:47:04;9.60;;;2.03;;
23543;SDS011;11950;51.230;4.012;2022-07-25T11:49:42;6.82;;;1.67;;
23543;SDS011;11950;51.230;4.012;2022-07-25T11:52:21;8.90;;;1.65;;
23543;SDS011;11950;51.230;4.012;2022-07-25T11:57:21;5.28;;;1.83;;
23543;SDS011;11950;51.230;4.012;2022-07-25T11:59:48;6.80;;;1.83;;
23543;SDS011;11950;51.230;4.012;2022-07-25T12:02:24;7.45;;;1.60;;
23543;SDS011;11950;51.230;4.012;2022-07-25T12:05:00;8.25;;;1.30;;
23543;SDS011;11950;51.230;4.012;2022-07-25T12:07:41;9.93;;;1.17;;
23543;SDS011;11950;51.230;4.012;2022-07-25T12:10:16;3.60;;;1.02;;
23543;SDS011;11950;51.230;4.012;2022-07-25T12:12:54;6.93;;;1.33;;
23543;SDS011;11950;51.230;4.012;2022-07-25T12:15:31;9.43;;;1.40;;
23543;SDS011;11950;51.230;4.012;2022-07-25T12:17:57;10.05;;;1.17;;
23543;SDS011;11950;51.230;4.012;2022-07-25T12:20:25;4.85;;;1.20;;
23543;SDS011;11950;51.230;4.012;2022-07-25T12:23:03;11.68;;;1.33;;
23543;SDS011;11950;51.230;4.012;2022-07-25T12:25:31;9.38;;;1.50;;
23543;SDS011;11950;51.230;4.012;2022-07-25T12:27:58;6.55;;;1.00;;
23543;SDS011;11950;51.230;4.012;2022-07-25T12:30:26;3.63;;;1.20;;
23543;SDS011;11950;51.230;4.012;2022-07-25T12:32:53;6.70;;;1.17;;
23543;SDS011;11950;51.230;4.012;2022-07-25T12:35:20;7.97;;;1.48;;
23543;SDS011;11950;51.230;4.012;2022-07-25T12:37:48;4.53;;;1.00;;
23543;SDS011;11950;51.230;4.012;2022-07-25T12:40:15;4.40;;;1.10;;
23543;SDS011;11950;51.230;4.012;2022-07-25T12:42:42;6.20;;;1.10;;
23543;SDS011;11950;51.230;4.012;2022-07-25T12:45:08;5.70;;;0.80;;
23543;SDS011;11950;51.230;4.012;2022-07-25T12:47:36;3.03;;;0.90;;
23543;SDS011;11950;51.230;4.012;2022-07-25T12:50:03;8.10;;;1.25;;
23543;SDS011;11950;51.230;4.012;2022-07-25T12:52:30;5.28;;;1.13;;
23543;SDS011;11950;51.230;4.012;2022-07-25T12:54:57;6.50;;;0.95;;
23543;SDS011;11950;51.230;4.012;2022-07-25T12:57:23;5.38;;;0.88;;
23543;SDS011;11950;51.230;4.012;2022-07-25T12:59:49;6.40;;;0.93;;
23543;SDS011;11950;51.230;4.012;2022-07-25T13:02:16;4.47;;;0.95;;
23543;SDS011;11950;51.230;4.012;2022-07-25T13:04:42;3.78;;;0.90;;
23543;SDS011;11950;51.230;4.012;2022-07-25T13:07:09;5.43;;;0.82;;
23543;SDS011;11950;51.230;4.012;2022-07-25T13:09:35;3.60;;;0.80;;
23543;SDS011;11950;51.230;4.012;2022-07-25T13:12:01;9.45;;;0.82;;
23543;SDS011;11950;51.230;4.012;2022-07-25T13:14:27;5.47;;;0.80;;
23543;SDS011;11950;51.230;4.012;2022-07-25T13:16:54;6.60;;;0.80;;
23543;SDS011;11950;51.230;4.012;2022-07-25T13:19:21;5.57;;;0.68;;
23543;SDS011;11950;51.230;4.012;2022-07-25T13:21:47;3.47;;;0.85;;
23543;SDS011;11950;51.230;4.012;2022-07-25T13:24:14;7.80;;;0.65;;
23543;SDS011;11950;51.230;4.012;2022-07-25T13:26:40;5.97;;;1.13;;
23543;SDS011;11950;51.230;4.012;2022-07-25T13:29:06;6.53;;;0.82;;
23543;SDS011;11950;51.230;4.012;2022-07-25T13:31:36;4.93;;;0.80;;
23543;SDS011;11950;51.230;4.012;2022-07-25T13:36:31;5.18;;;0.70;;
23543;SDS011;11950;51.230;4.012;2022-07-25T13:38:58;9.50;;;0.90;;
23543;SDS011;11950;51.230;4.012;2022-07-25T13:41:24;10.80;;;1.00;;
23543;SDS011;11950;51.230;4.012;2022-07-25T13:43:51;3.17;;;0.60;;
23543;SDS011;11950;51.230;4.012;2022-07-25T13:46:18;3.47;;;0.50;;
23543;SDS011;11950;51.230;4.012;2022-07-25T13:48:44;2.95;;;0.60;;
23543;SDS011;11950;51.230;4.012;2022-07-25T13:51:11;3.97;;;0.60;;
23543;SDS011;11950;51.230;4.012;2022-07-25T13:53:37;6.93;;;0.60;;
23543;SDS011;11950;51.230;4.012;2022-07-25T13:56:04;4.38;;;0.50;;
23543;SDS011;11950;51.230;4.012;2022-07-25T13:58:30;2.38;;;0.50;;
23543;SDS011;11950;51.230;4.012;2022-07-25T14:00:57;1.63;;;0.40;;
23543;SDS011;11950;51.230;4.012;2022-07-25T14:03:23;5.18;;;0.40;;
23543;SDS011;11950;51.230;4.012;2022-07-25T14:05:50;4.72;;;0.60;;
23543;SDS011;11950;51.230;4.012;2022-07-25T14:08:16;1.33;;;0.68;;
23543;SDS011;11950;51.230;4.012;2022-07-25T14:10:43;3.05;;;0.50;;
23543;SDS011;11950;51.230;4.012;2022-07-25T14:13:09;3.70;;;0.40;;
23543;SDS011;11950;51.230;4.012;2022-07-25T14:15:37;2.03;;;0.47;;
23543;SDS011;11950;51.230;4.012;2022-07-25T14:18:04;3.20;;;0.50;;
23543;SDS011;11950;51.230;4.012;2022-07-25T14:20:30;1.85;;;0.50;;
23543;SDS011;11950;51.230;4.012;2022-07-25T14:22:57;5.05;;;0.88;;
23543;SDS011;11950;51.230;4.012;2022-07-25T14:25:23;3.40;;;0.68;;
23543;SDS011;11950;51.230;4.012;2022-07-25T14:27:49;5.63;;;0.68;;
23543;SDS011;11950;51.230;4.012;2022-07-25T14:30:16;4.75;;;0.73;;
23543;SDS011;11950;51.230;4.012;2022-07-25T14:32:42;6.28;;;0.70;;
23543;SDS011;11950;51.230;4.012;2022-07-25T14:35:09;4.75;;;1.02;;
23543;SDS011;11950;51.230;4.012;2022-07-25T14:37:36;8.50;;;0.98;;
23543;SDS011;11950;51.230;4.012;2022-07-25T14:40:02;4.53;;;0.60;;
23543;SDS011;11950;51.230;4.012;2022-07-25T14:42:29;3.45;;;0.70;;
23543;SDS011;11950;51.230;4.012;2022-07-25T14:44:56;5.43;;;0.80;;
23543;SDS011;11950;51.230;4.012;2022-07-25T14:47:22;4.45;;;0.60;;
23543;SDS011;11950;51.230;4.012;2022-07-25T14:49:48;4.50;;;0.70;;
23543;SDS011;11950;51.230;4.012;2022-07-25T14:52:15;5.72;;;0.70;;
23543;SDS011;11950;51.230;4.012;2022-07-25T14:54:43;5.70;;;0.88;;
23543;SDS011;11950;51.230;4.012;2022-07-25T14:57:09;2.65;;;0.57;;
23543;SDS011;11950;51.230;4.012;2022-07-25T14:59:37;2.47;;;0.60;;
23543;SDS011;11950;51.230;4.012;2022-07-25T15:02:03;3.03;;;0.38;;